createdAt,value
2024-04-21T00:01:15.019Z,100.00
2024-04-21T00:03:41.808Z,100.00
2024-04-21T00:06:08.278Z,100.00
2024-04-21T00:08:34.751Z,100.00
2024-04-21T00:11:01.456Z,100.00
2024-04-21T00:13:28.190Z,100.00
2024-04-21T00:15:54.906Z,100.00
2024-04-21T00:18:21.433Z,100.00
2024-04-21T00:20:47.963Z,100.00
2024-04-21T00:23:14.608Z,100.00
2024-04-21T00:25:41.088Z,100.00
2024-04-21T00:28:07.916Z,100.00
2024-04-21T00:30:34.529Z,100.00
2024-04-21T00:33:01.120Z,100.00
2024-04-21T00:35:27.602Z,100.00
2024-04-21T00:37:54.106Z,100.00
2024-04-21T00:40:24.081Z,100.00
2024-04-21T00:43:00.357Z,100.00
2024-04-21T00:45:31.928Z,100.00
2024-04-21T00:48:04.001Z,100.00
2024-04-21T00:50:32.129Z,100.00
2024-04-21T00:52:58.632Z,100.00
2024-04-21T00:55:25.430Z,100.00
2024-04-21T00:57:52.473Z,100.00
2024-04-21T01:00:19.919Z,100.00
2024-04-21T01:02:46.609Z,100.00
2024-04-21T01:05:13.289Z,100.00
2024-04-21T01:07:39.839Z,100.00
2024-04-21T01:10:06.655Z,100.00
2024-04-21T01:12:39.181Z,100.00
2024-04-21T01:15:05.920Z,100.00
2024-04-21T01:17:32.619Z,100.00
2024-04-21T01:19:59.224Z,100.00
2024-04-21T01:22:25.841Z,100.00
2024-04-21T01:24:52.361Z,100.00
2024-04-21T01:27:19.012Z,100.00
2024-04-21T01:29:45.506Z,100.00
2024-04-21T01:32:21.730Z,100.00
2024-04-21T01:34:48.720Z,100.00
2024-04-21T01:37:16.782Z,100.00
2024-04-21T01:39:43.554Z,100.00
2024-04-21T01:42:10.056Z,100.00
2024-04-21T01:44:36.827Z,100.00
2024-04-21T01:47:03.345Z,100.00
2024-04-21T01:49:29.841Z,100.00
2024-04-21T01:51:56.577Z,100.00
2024-04-21T01:54:23.027Z,100.00
2024-04-21T01:56:49.488Z,100.00
2024-04-21T01:59:16.120Z,100.00
2024-04-21T02:01:42.649Z,100.00
2024-04-21T02:04:09.232Z,100.00
2024-04-21T02:06:38.910Z,100.00
2024-04-21T02:09:05.367Z,100.00
2024-04-21T02:11:31.887Z,100.00
2024-04-21T02:13:58.496Z,100.00
2024-04-21T02:16:24.970Z,100.00
2024-04-21T02:18:51.668Z,100.00
2024-04-21T02:21:18.257Z,100.00
2024-04-21T02:23:50.818Z,100.00
2024-04-21T02:26:17.424Z,100.00
2024-04-21T02:28:44.210Z,100.00
2024-04-21T02:31:11.070Z,100.00
2024-04-21T02:33:37.776Z,100.00
2024-04-21T02:36:04.462Z,100.00
2024-04-21T02:38:32.612Z,100.00
2024-04-21T02:40:59.323Z,100.00
2024-04-21T02:43:25.837Z,100.00
2024-04-21T02:45:52.583Z,100.00
2024-04-21T02:48:19.088Z,100.00
2024-04-21T02:50:46.429Z,100.00
2024-04-21T02:53:13.126Z,100.00
2024-04-21T02:55:43.661Z,100.00
2024-04-21T02:58:10.236Z,100.00
2024-04-21T03:00:40.487Z,100.00
2024-04-21T03:03:07.312Z,100.00
2024-04-21T03:05:33.918Z,100.00
2024-04-21T03:08:00.576Z,100.00
2024-04-21T03:10:27.150Z,100.00
2024-04-21T03:12:53.767Z,100.00
2024-04-21T03:15:20.461Z,100.00
2024-04-21T03:17:47.060Z,100.00
2024-04-21T03:20:13.548Z,100.00
2024-04-21T03:22:40.220Z,100.00
2024-04-21T03:25:06.968Z,100.00
2024-04-21T03:27:33.487Z,100.00
2024-04-21T03:30:00.165Z,100.00
2024-04-21T03:32:26.842Z,100.00
2024-04-21T03:34:54.258Z,100.00
2024-04-21T03:37:20.953Z,100.00
2024-04-21T03:39:47.433Z,100.00
2024-04-21T03:42:13.969Z,100.00
2024-04-21T03:44:40.576Z,100.00
2024-04-21T03:47:07.059Z,100.00
2024-04-21T03:49:33.518Z,100.00
2024-04-21T03:52:00.325Z,100.00
2024-04-21T03:54:26.843Z,100.00
2024-04-21T03:56:53.306Z,100.00
2024-04-21T03:59:19.927Z,100.00
2024-04-21T04:01:46.746Z,100.00
2024-04-21T04:04:13.265Z,100.00
2024-04-21T04:06:39.915Z,100.00
2024-04-21T04:09:06.505Z,100.00
2024-04-21T04:11:32.979Z,100.00
2024-04-21T04:13:59.594Z,100.00
2024-04-21T04:16:26.108Z,100.00
2024-04-21T04:18:52.600Z,100.00
2024-04-21T04:21:19.238Z,100.00
2024-04-21T04:23:45.711Z,100.00
2024-04-21T04:26:12.248Z,100.00
2024-04-21T04:28:39.811Z,100.00
2024-04-21T04:31:06.376Z,100.00
2024-04-21T04:33:33.098Z,100.00
2024-04-21T04:35:59.848Z,100.00
2024-04-21T04:38:26.294Z,100.00
2024-04-21T04:40:52.742Z,100.00
2024-04-21T04:43:19.569Z,100.00
2024-04-21T04:45:46.196Z,100.00
2024-04-21T04:48:12.714Z,100.00
2024-04-21T04:50:39.334Z,100.00
2024-04-21T04:53:05.936Z,100.00
2024-04-21T04:55:32.432Z,100.00
2024-04-21T04:57:59.180Z,100.00
2024-04-21T05:00:25.696Z,100.00
2024-04-21T05:02:52.182Z,100.00
2024-04-21T05:05:18.971Z,100.00
2024-04-21T05:07:45.422Z,100.00
2024-04-21T05:10:11.924Z,100.00
2024-04-21T05:12:39.259Z,100.00
2024-04-21T05:15:06.330Z,100.00
2024-04-21T05:17:32.824Z,100.00
2024-04-21T05:19:59.514Z,100.00
2024-04-21T05:22:26.052Z,100.00
2024-04-21T05:24:52.548Z,100.00
2024-04-21T05:27:19.304Z,100.00
2024-04-21T05:29:45.792Z,100.00
2024-04-21T05:32:12.264Z,100.00
2024-04-21T05:34:38.984Z,100.00
2024-04-21T05:37:05.463Z,100.00
2024-04-21T05:39:31.957Z,100.00
2024-04-21T05:41:58.681Z,100.00
2024-04-21T05:44:25.153Z,100.00
2024-04-21T05:46:51.589Z,100.00
2024-04-21T05:49:21.042Z,100.00
2024-04-21T05:51:47.696Z,100.00
2024-04-21T05:54:14.169Z,100.00
2024-04-21T05:56:40.768Z,100.00
2024-04-21T05:59:07.245Z,100.00
2024-04-21T06:01:34.299Z,100.00
2024-04-21T06:04:01.304Z,100.00
2024-04-21T06:06:27.833Z,100.00
2024-04-21T06:08:54.292Z,100.00
2024-04-21T06:11:20.924Z,100.00
2024-04-21T06:13:47.398Z,100.00
2024-04-21T06:16:14.069Z,100.00
2024-04-21T06:18:42.714Z,100.00
2024-04-21T06:21:10.899Z,100.00
2024-04-21T06:23:37.472Z,100.00
2024-04-21T06:26:04.233Z,100.00
2024-04-21T06:28:32.573Z,100.00
2024-04-21T06:30:59.092Z,100.00
2024-04-21T06:33:25.596Z,100.00
2024-04-21T06:35:52.243Z,100.00
2024-04-21T06:38:18.703Z,100.00
2024-04-21T06:40:45.504Z,100.00
2024-04-21T06:43:12.036Z,100.00
2024-04-21T06:45:42.809Z,100.00
2024-04-21T06:48:09.528Z,100.00
2024-04-21T06:50:36.560Z,100.00
2024-04-21T06:53:03.201Z,100.00
2024-04-21T06:55:29.716Z,100.00
2024-04-21T06:57:56.309Z,97.71
2024-04-21T07:00:22.911Z,91.77
2024-04-21T07:02:49.372Z,91.85
2024-04-21T07:05:16.005Z,93.67
2024-04-21T07:07:42.507Z,94.31
2024-04-21T07:10:09.021Z,95.01
2024-04-21T07:12:35.630Z,93.25
2024-04-21T07:15:02.167Z,95.35
2024-04-21T07:17:28.769Z,95.44
2024-04-21T07:19:55.408Z,95.33
2024-04-21T07:22:21.933Z,92.09
2024-04-21T07:24:48.451Z,95.52
2024-04-21T07:27:14.916Z,100.00
2024-04-21T07:29:42.145Z,91.59
2024-04-21T07:32:08.772Z,91.66
2024-04-21T07:34:35.338Z,91.26
2024-04-21T07:37:03.922Z,86.62
2024-04-21T07:39:30.688Z,87.43
2024-04-21T07:41:57.303Z,84.36
2024-04-21T07:44:23.905Z,82.83
2024-04-21T07:46:50.375Z,77.73
2024-04-21T07:49:16.894Z,76.61
2024-04-21T07:51:43.587Z,74.47
2024-04-21T07:54:10.000Z,72.81
2024-04-21T07:56:36.584Z,71.09
2024-04-21T07:59:03.064Z,71.72
2024-04-21T08:01:29.602Z,68.58
2024-04-21T08:03:56.518Z,66.65
2024-04-21T08:06:23.685Z,65.48
2024-04-21T08:08:55.664Z,65.44
2024-04-21T08:11:27.854Z,59.68
2024-04-21T08:13:54.493Z,62.88
2024-04-21T08:16:20.983Z,63.59
2024-04-21T08:18:47.606Z,62.71
2024-04-21T08:21:14.254Z,61.90
2024-04-21T08:23:40.723Z,61.08
2024-04-21T08:26:07.320Z,60.25
2024-04-21T08:28:33.850Z,57.73
2024-04-21T08:31:00.458Z,59.60
2024-04-21T08:33:27.689Z,56.96
2024-04-21T08:35:55.337Z,57.67
2024-04-21T08:38:22.482Z,56.23
2024-04-21T08:40:49.844Z,55.50
2024-04-21T08:43:22.434Z,54.34
2024-04-21T08:45:50.772Z,55.40
2024-04-21T08:48:18.489Z,53.73
2024-04-21T08:50:46.717Z,55.25
2024-04-21T08:53:13.598Z,55.18
2024-04-21T08:55:41.687Z,53.34
2024-04-21T08:58:09.309Z,53.62
2024-04-21T09:00:35.908Z,54.47
2024-04-21T09:03:02.598Z,52.37
2024-04-21T09:05:29.350Z,52.12
2024-04-21T09:07:57.552Z,49.88
2024-04-21T09:10:24.267Z,50.51
2024-04-21T09:12:51.386Z,50.36
2024-04-21T09:15:18.278Z,52.53
2024-04-21T09:17:45.076Z,53.35
2024-04-21T09:20:11.677Z,52.55
2024-04-21T09:22:38.814Z,52.22
2024-04-21T09:25:05.803Z,51.52
2024-04-21T09:27:32.916Z,51.05
2024-04-21T09:29:59.433Z,50.61
2024-04-21T09:32:29.608Z,49.38
2024-04-21T09:34:58.754Z,50.43
2024-04-21T09:37:26.400Z,51.94
2024-04-21T09:39:53.249Z,50.92
2024-04-21T09:42:20.658Z,50.76
2024-04-21T09:44:50.522Z,50.51
2024-04-21T09:47:17.840Z,50.12
2024-04-21T09:49:44.714Z,49.56
2024-04-21T09:52:12.835Z,48.57
2024-04-21T09:54:39.798Z,47.29
2024-04-21T09:57:13.294Z,47.56
2024-04-21T09:59:40.096Z,47.71
2024-04-21T10:02:12.353Z,49.07
2024-04-21T10:04:41.595Z,47.39
2024-04-21T10:07:08.166Z,45.96
2024-04-21T10:09:38.107Z,47.24
2024-04-21T10:12:04.936Z,49.15
2024-04-21T10:14:31.724Z,49.77
2024-04-21T10:16:58.903Z,50.78
2024-04-21T10:19:27.095Z,52.11
2024-04-21T10:21:54.135Z,53.50
2024-04-21T10:24:21.231Z,54.77
2024-04-21T10:26:47.907Z,55.04
2024-04-21T10:29:14.357Z,52.58
2024-04-21T10:31:40.821Z,52.33
2024-04-21T10:34:11.130Z,51.75
2024-04-21T10:36:47.509Z,50.75
2024-04-21T10:39:24.237Z,51.61
2024-04-21T10:41:52.342Z,50.75
2024-04-21T10:44:18.896Z,52.31
2024-04-21T10:46:45.563Z,52.89
2024-04-21T10:49:12.134Z,51.09
2024-04-21T10:51:38.693Z,52.02
2024-04-21T10:54:08.702Z,52.77
2024-04-21T10:56:37.967Z,53.86
2024-04-21T10:59:06.663Z,53.50
2024-04-21T11:01:33.287Z,53.17
2024-04-21T11:04:02.291Z,52.11
2024-04-21T11:06:28.848Z,52.37
2024-04-21T11:08:55.768Z,52.51
2024-04-21T11:11:22.571Z,52.29
2024-04-21T11:13:52.259Z,51.78
2024-04-21T11:16:20.327Z,52.30
2024-04-21T11:18:47.147Z,51.14
2024-04-21T11:21:13.637Z,51.60
2024-04-21T11:23:40.611Z,52.23
2024-04-21T11:26:11.228Z,52.15
2024-04-21T11:28:37.702Z,51.23
2024-04-21T11:31:06.429Z,51.05
2024-04-21T11:33:34.487Z,50.58
2024-04-21T11:36:02.429Z,50.52
2024-04-21T11:38:30.167Z,50.56
2024-04-21T11:40:57.007Z,50.23
2024-04-21T11:43:23.527Z,50.03
2024-04-21T11:45:50.310Z,51.00
2024-04-21T11:48:16.951Z,50.37
2024-04-21T11:50:43.722Z,51.36
2024-04-21T11:53:10.192Z,51.03
2024-04-21T11:55:36.975Z,51.86
2024-04-21T11:58:03.702Z,51.67
2024-04-21T12:00:30.463Z,51.68
2024-04-21T12:02:57.045Z,50.99
2024-04-21T12:05:23.674Z,51.33
2024-04-21T12:07:50.164Z,51.01
2024-04-21T12:10:16.814Z,51.11
2024-04-21T12:12:44.006Z,50.09
2024-04-21T12:15:10.738Z,49.94
2024-04-21T12:17:37.272Z,50.11
2024-04-21T12:20:03.978Z,50.64
2024-04-21T12:22:30.526Z,50.89
2024-04-21T12:24:57.276Z,52.15
2024-04-21T12:27:23.841Z,52.81
2024-04-21T12:29:50.293Z,51.96
2024-04-21T12:32:16.965Z,52.37
2024-04-21T12:34:44.051Z,49.73
2024-04-21T12:37:10.532Z,49.14
2024-04-21T12:39:37.211Z,48.84
2024-04-21T12:42:04.116Z,49.59
2024-04-21T12:44:30.756Z,49.40
2024-04-21T12:46:57.594Z,48.34
2024-04-21T12:49:24.226Z,47.38
2024-04-21T12:51:51.248Z,47.73
2024-04-21T12:54:20.727Z,47.73
2024-04-21T12:56:47.946Z,47.60
2024-04-21T12:59:14.555Z,48.26
2024-04-21T13:01:41.123Z,46.54
2024-04-21T13:04:09.385Z,47.21
2024-04-21T13:06:35.989Z,46.06
2024-04-21T13:09:02.572Z,46.78
2024-04-21T13:11:29.083Z,46.43
2024-04-21T13:13:55.698Z,47.56
2024-04-21T13:16:22.288Z,47.72
2024-04-21T13:18:49.015Z,47.68
2024-04-21T13:21:15.594Z,47.93
2024-04-21T13:23:43.435Z,48.06
2024-04-21T13:26:10.080Z,47.95
2024-04-21T13:28:36.678Z,45.76
2024-04-21T13:31:03.357Z,44.55
2024-04-21T13:33:30.136Z,43.79
2024-04-21T13:35:56.883Z,44.15
2024-04-21T13:38:23.351Z,45.00
2024-04-21T13:40:50.013Z,45.65
2024-04-21T13:43:16.637Z,44.43
2024-04-21T13:45:43.358Z,43.80
2024-04-21T13:48:10.729Z,43.64
2024-04-21T13:50:37.271Z,44.19
2024-04-21T13:53:04.009Z,44.10
2024-04-21T13:55:30.572Z,44.50
2024-04-21T13:57:57.272Z,45.24
2024-04-21T14:00:24.989Z,46.00
2024-04-21T14:02:51.507Z,45.70
2024-04-21T14:05:18.110Z,46.03
2024-04-21T14:07:44.624Z,45.92
2024-04-21T14:10:11.150Z,47.62
2024-04-21T14:12:37.709Z,45.97
2024-04-21T14:15:04.452Z,46.07
2024-04-21T14:17:31.089Z,47.17
2024-04-21T14:19:57.647Z,47.22
2024-04-21T14:22:24.443Z,45.40
2024-04-21T14:24:51.049Z,44.34
2024-04-21T14:27:17.617Z,44.44
2024-04-21T14:29:46.679Z,44.63
2024-04-21T14:32:15.574Z,46.10
2024-04-21T14:34:42.084Z,44.31
2024-04-21T14:37:08.787Z,43.60
2024-04-21T14:39:35.289Z,43.58
2024-04-21T14:42:03.406Z,41.62
2024-04-21T14:44:30.079Z,41.74
2024-04-21T14:46:57.440Z,42.04
2024-04-21T14:49:24.098Z,43.12
2024-04-21T14:51:50.822Z,44.57
2024-04-21T14:54:17.348Z,45.73
2024-04-21T14:56:43.952Z,44.88
2024-04-21T14:59:11.175Z,44.02
2024-04-21T15:01:38.440Z,42.37
2024-04-21T15:04:05.060Z,41.63
2024-04-21T15:06:31.752Z,41.06
2024-04-21T15:09:01.486Z,41.07
2024-04-21T15:11:28.380Z,40.86
2024-04-21T15:13:58.254Z,39.04
2024-04-21T15:16:25.371Z,40.35
2024-04-21T15:18:51.857Z,41.15
2024-04-21T15:21:18.464Z,41.28
2024-04-21T15:23:44.914Z,42.23
2024-04-21T15:26:11.561Z,42.19
2024-04-21T15:28:38.281Z,42.58
2024-04-21T15:31:07.073Z,43.20
2024-04-21T15:33:34.082Z,42.47
2024-04-21T15:36:00.994Z,42.19
2024-04-21T15:38:27.487Z,42.45
2024-04-21T15:40:53.953Z,41.69
2024-04-21T15:43:20.611Z,39.53
2024-04-21T15:45:47.078Z,39.30
2024-04-21T15:48:13.547Z,39.57
2024-04-21T15:50:40.286Z,40.12
2024-04-21T15:53:06.750Z,40.84
2024-04-21T15:55:33.696Z,42.29
2024-04-21T15:58:00.565Z,42.99
2024-04-21T16:00:27.053Z,43.53
2024-04-21T16:02:53.620Z,42.85
2024-04-21T16:05:20.293Z,44.23
2024-04-21T16:07:46.794Z,43.99
2024-04-21T16:10:13.302Z,44.30
2024-04-21T16:12:41.430Z,44.93
2024-04-21T16:15:09.500Z,44.15
2024-04-21T16:17:36.178Z,41.41
2024-04-21T16:20:02.958Z,39.83
2024-04-21T16:22:29.468Z,37.28
2024-04-21T16:24:55.994Z,37.47
2024-04-21T16:27:23.019Z,36.77
2024-04-21T16:29:49.760Z,37.19
2024-04-21T16:32:16.458Z,37.60
2024-04-21T16:34:43.624Z,37.16
2024-04-21T16:37:12.715Z,36.08
2024-04-21T16:39:39.602Z,34.82
2024-04-21T16:42:06.813Z,34.91
2024-04-21T16:44:33.663Z,34.96
2024-04-21T16:47:00.536Z,34.70
2024-04-21T16:49:31.034Z,33.08
2024-04-21T16:52:01.418Z,33.08
2024-04-21T16:54:28.889Z,33.61
2024-04-21T16:57:06.969Z,32.60
2024-04-21T16:59:41.413Z,32.06
2024-04-21T17:02:08.473Z,33.05
2024-04-21T17:04:36.643Z,33.24
2024-04-21T17:07:04.727Z,32.29
2024-04-21T17:09:32.003Z,32.61
2024-04-21T17:12:00.064Z,34.00
2024-04-21T17:14:26.873Z,35.02
2024-04-21T17:16:54.512Z,36.13
2024-04-21T17:19:25.144Z,37.59
2024-04-21T17:21:51.799Z,39.26
2024-04-21T17:24:18.757Z,40.87
2024-04-21T17:26:45.695Z,41.10
2024-04-21T17:29:12.491Z,41.84
2024-04-21T17:31:39.503Z,42.71
2024-04-21T17:34:06.287Z,43.76
2024-04-21T17:36:32.884Z,43.90
2024-04-21T17:39:02.544Z,44.03
2024-04-21T17:41:29.022Z,44.57
2024-04-21T17:43:55.504Z,42.81
2024-04-21T17:46:22.397Z,43.65
2024-04-21T17:48:49.208Z,42.79
2024-04-21T17:51:16.608Z,43.29
2024-04-21T17:53:43.261Z,43.34
2024-04-21T17:56:09.994Z,44.01
2024-04-21T17:58:36.757Z,43.77
2024-04-21T18:01:07.397Z,43.95
2024-04-21T18:03:33.975Z,44.14
2024-04-21T18:06:07.218Z,43.99
2024-04-21T18:08:34.108Z,44.33
2024-04-21T18:11:00.697Z,44.86
2024-04-21T18:13:27.240Z,45.37
2024-04-21T18:15:54.026Z,44.98
2024-04-21T18:18:20.499Z,45.58
2024-04-21T18:20:47.009Z,46.29
2024-04-21T18:23:13.779Z,47.16
2024-04-21T18:25:40.454Z,47.38
2024-04-21T18:28:07.193Z,47.74
2024-04-21T18:30:36.618Z,47.84
2024-04-21T18:33:03.324Z,48.14
2024-04-21T18:35:30.219Z,48.31
2024-04-21T18:37:58.310Z,48.95
2024-04-21T18:40:24.944Z,49.01
2024-04-21T18:42:51.583Z,49.95
2024-04-21T18:45:18.077Z,50.02
2024-04-21T18:47:44.756Z,49.92
2024-04-21T18:50:11.331Z,50.75
2024-04-21T18:52:38.047Z,51.52
2024-04-21T18:55:05.728Z,51.63
2024-04-21T18:57:32.489Z,52.44
2024-04-21T18:59:59.072Z,53.75
2024-04-21T19:02:25.770Z,54.81
2024-04-21T19:04:52.254Z,55.92
2024-04-21T19:07:18.766Z,57.01
2024-04-21T19:09:45.712Z,57.84
2024-04-21T19:12:12.645Z,58.78
2024-04-21T19:14:39.340Z,58.79
2024-04-21T19:17:07.689Z,60.48
2024-04-21T19:19:35.088Z,60.62
2024-04-21T19:22:01.783Z,61.64
2024-04-21T19:24:28.464Z,62.07
2024-04-21T19:26:55.043Z,61.57
2024-04-21T19:29:21.553Z,61.68
2024-04-21T19:31:48.229Z,61.64
2024-04-21T19:34:14.747Z,64.51
2024-04-21T19:36:41.222Z,67.03
2024-04-21T19:39:07.826Z,65.84
2024-04-21T19:41:34.472Z,65.85
2024-04-21T19:44:01.406Z,64.73
2024-04-21T19:46:27.960Z,63.63
2024-04-21T19:48:54.470Z,67.29
2024-04-21T19:51:21.215Z,69.41
2024-04-21T19:53:47.969Z,70.39
2024-04-21T19:56:15.576Z,71.28
2024-04-21T19:58:42.225Z,68.23
2024-04-21T20:01:09.006Z,68.37
2024-04-21T20:03:35.718Z,70.36
2024-04-21T20:06:04.197Z,70.05
2024-04-21T20:08:30.882Z,71.00
2024-04-21T20:10:57.368Z,76.58
2024-04-21T20:13:23.980Z,81.46
2024-04-21T20:16:12.742Z,85.57
2024-04-21T20:18:44.952Z,84.36
2024-04-21T20:21:11.793Z,85.63
2024-04-21T20:23:38.382Z,87.93
2024-04-21T20:26:07.504Z,88.61
2024-04-21T20:28:34.072Z,91.57
2024-04-21T20:31:01.031Z,92.32
2024-04-21T20:33:27.616Z,93.71
2024-04-21T20:35:54.133Z,95.84
2024-04-21T20:38:20.714Z,99.10
2024-04-21T20:40:47.957Z,100.00
2024-04-21T20:43:14.693Z,100.00
2024-04-21T20:45:41.161Z,100.00
2024-04-21T20:48:07.763Z,100.00
2024-04-21T20:50:35.000Z,100.00
2024-04-21T20:53:01.720Z,100.00
2024-04-21T20:55:28.429Z,96.22
2024-04-21T20:57:55.100Z,96.61
2024-04-21T21:00:21.631Z,98.21
2024-04-21T21:02:48.335Z,99.09
2024-04-21T21:05:15.084Z,99.63
2024-04-21T21:07:41.619Z,100.00
2024-04-21T21:10:08.244Z,100.00
2024-04-21T21:12:34.784Z,100.00
2024-04-21T21:15:01.959Z,100.00
2024-04-21T21:17:29.846Z,100.00
2024-04-21T21:19:56.346Z,97.67
2024-04-21T21:22:23.034Z,94.39
2024-04-21T21:24:49.492Z,94.66
2024-04-21T21:27:16.157Z,96.58
2024-04-21T21:29:43.934Z,98.95
2024-04-21T21:32:10.707Z,98.53
2024-04-21T21:34:37.421Z,96.95
2024-04-21T21:37:04.029Z,100.00
2024-04-21T21:39:30.649Z,97.24
2024-04-21T21:41:57.282Z,93.85
2024-04-21T21:44:26.157Z,94.71
2024-04-21T21:46:52.736Z,97.72
2024-04-21T21:49:19.246Z,95.14
2024-04-21T21:51:46.039Z,94.36
2024-04-21T21:54:12.494Z,94.36
2024-04-21T21:56:38.972Z,93.39
2024-04-21T21:59:05.636Z,94.09
2024-04-21T22:01:32.214Z,93.70
2024-04-21T22:03:59.012Z,93.58
2024-04-21T22:06:26.517Z,91.29
2024-04-21T22:08:53.135Z,90.00
2024-04-21T22:11:19.672Z,91.09
2024-04-21T22:13:49.235Z,95.18
2024-04-21T22:16:16.127Z,97.77
2024-04-21T22:18:42.698Z,100.00
2024-04-21T22:21:09.321Z,100.00
2024-04-21T22:23:35.791Z,100.00
2024-04-21T22:26:02.395Z,100.00
2024-04-21T22:28:28.895Z,100.00
2024-04-21T22:30:55.360Z,100.00
2024-04-21T22:33:22.114Z,100.00
2024-04-21T22:35:55.298Z,100.00
2024-04-21T22:38:21.953Z,100.00
2024-04-21T22:41:04.585Z,100.00
2024-04-21T22:43:31.792Z,100.00
2024-04-21T22:46:00.562Z,100.00
2024-04-21T22:48:27.136Z,100.00
2024-04-21T22:50:54.218Z,100.00
2024-04-21T22:53:21.378Z,100.00
2024-04-21T22:55:48.148Z,100.00
2024-04-21T22:58:14.711Z,100.00
2024-04-21T23:00:41.704Z,100.00
2024-04-21T23:03:08.539Z,100.00
2024-04-21T23:05:37.258Z,100.00
2024-04-21T23:08:04.260Z,100.00
2024-04-21T23:10:32.943Z,100.00
2024-04-21T23:13:06.416Z,100.00
2024-04-21T23:15:33.250Z,100.00
2024-04-21T23:17:59.777Z,100.00
2024-04-21T23:20:26.413Z,100.00
2024-04-21T23:22:52.882Z,100.00
2024-04-21T23:25:19.564Z,100.00
2024-04-21T23:27:46.057Z,100.00
2024-04-21T23:30:12.565Z,100.00
2024-04-21T23:32:39.243Z,100.00
2024-04-21T23:35:05.781Z,100.00
2024-04-21T23:37:32.442Z,100.00
2024-04-21T23:39:58.923Z,100.00
2024-04-21T23:42:25.551Z,100.00
2024-04-21T23:44:52.145Z,100.00
2024-04-21T23:47:18.636Z,100.00
2024-04-21T23:49:45.299Z,100.00
2024-04-21T23:52:11.756Z,100.00
2024-04-21T23:54:38.220Z,100.00
2024-04-21T23:57:04.991Z,100.00
2024-04-21T23:59:32.107Z,100.00
